Blackville, South Carolina
Current Conditions -  °F | °C
As of 1:35 PM on Thursday 27 Nov 2014 (Local Time) from KBNL Reporting Station
Clear Clear  
Wind Chill: 54°   Ceiling: Unl
Heat Index: 54°   Visibility: NA
Dew Point: 32°   Wind: 16mph
Humidity: 44%   Direction: 290°WNW
Pressure: 30.16"   Gusts: 24mph
Location:  33.36°N, 81.27°W
Report Text: KBNL 271835Z AUTO 29014G21KT CLR 12/00 A3016 RMK AO2
Loading
Personal Weather Stations






























Interactive Weather Map New forecast layout! Learn more

10-Day Weather Forecast

Advertisements
Track Severe Weather on mobile